createdAt,value
2024-03-15T00:00:47.760Z,51.212162
2024-03-15T00:01:47.866Z,51.212143
2024-03-15T00:02:47.773Z,51.212082
2024-03-15T00:03:47.749Z,51.212036
2024-03-15T00:04:47.743Z,51.212029
2024-03-15T00:05:47.713Z,51.212078
2024-03-15T00:06:47.755Z,51.212193
2024-03-15T00:07:47.707Z,51.212250
2024-03-15T00:08:47.677Z,51.212189
2024-03-15T00:09:47.730Z,51.212090
2024-03-15T00:10:47.785Z,51.212059
2024-03-15T00:11:47.709Z,51.212193
2024-03-15T00:12:47.823Z,51.212212
2024-03-15T00:13:47.689Z,51.212151
2024-03-15T00:14:47.663Z,51.212109
2024-03-15T00:15:47.730Z,51.212025
2024-03-15T00:16:47.670Z,51.212154
2024-03-15T00:17:47.652Z,51.212219
2024-03-15T00:18:47.703Z,51.212257
2024-03-15T00:19:48.604Z,51.212284
2024-03-15T00:20:47.636Z,51.212254
2024-03-15T00:21:47.652Z,51.212112
2024-03-15T00:22:47.629Z,51.212036
2024-03-15T00:23:47.603Z,51.212185
2024-03-15T00:24:47.680Z,51.212067
2024-03-15T00:25:47.594Z,51.212204
2024-03-15T00:26:47.583Z,51.212238
2024-03-15T00:27:47.686Z,51.212223
2024-03-15T00:28:47.536Z,51.212227
2024-03-15T00:29:47.547Z,51.212059
2024-03-15T00:30:47.651Z,51.212139
2024-03-15T00:31:47.548Z,51.211975
2024-03-15T00:32:47.568Z,51.211960
2024-03-15T00:33:47.548Z,51.212032
2024-03-15T00:34:47.524Z,51.212151
2024-03-15T00:35:47.550Z,51.212017
2024-03-15T00:36:47.554Z,51.212105
2024-03-15T00:37:47.517Z,51.212093
2024-03-15T00:38:47.503Z,51.212097
2024-03-15T00:39:48.648Z,51.212257
2024-03-15T00:40:47.520Z,51.212227
2024-03-15T00:41:47.477Z,51.212166
2024-03-15T00:42:47.588Z,51.212109
2024-03-15T00:43:47.490Z,51.212059
2024-03-15T00:44:47.457Z,51.212090
2024-03-15T00:45:47.496Z,51.212093
2024-03-15T00:46:47.463Z,51.212223
2024-03-15T00:47:47.465Z,51.212223
2024-03-15T00:48:47.462Z,51.212154
2024-03-15T00:49:47.485Z,51.212379
2024-03-15T00:50:47.430Z,51.212082
2024-03-15T00:51:47.468Z,51.211983
2024-03-15T00:52:47.415Z,51.212074
2024-03-15T00:53:47.402Z,51.212166
2024-03-15T00:54:47.481Z,51.212185
2024-03-15T00:55:47.431Z,51.212284
2024-03-15T00:56:47.476Z,51.212326
2024-03-15T00:57:48.420Z,51.212234
2024-03-15T00:58:47.378Z,51.212254
2024-03-15T00:59:47.366Z,51.212212
2024-03-15T01:00:47.423Z,51.212212
2024-03-15T01:01:47.372Z,51.212200
2024-03-15T01:02:47.357Z,51.212185
2024-03-15T01:03:47.422Z,51.212254
2024-03-15T01:04:47.365Z,51.212257
2024-03-15T01:05:47.368Z,51.212219
2024-03-15T01:06:47.413Z,51.212204
2024-03-15T01:07:47.326Z,51.212143
2024-03-15T01:08:47.307Z,51.212132
2024-03-15T01:09:47.379Z,51.212170
2024-03-15T01:10:47.404Z,51.212204
2024-03-15T01:11:47.293Z,51.212002
2024-03-15T01:12:47.370Z,51.211876
2024-03-15T01:13:47.321Z,51.211891
2024-03-15T01:14:47.306Z,51.212074
2024-03-15T01:15:47.440Z,51.212154
2024-03-15T01:16:47.310Z,51.212212
2024-03-15T01:17:47.294Z,51.212147
2024-03-15T01:18:47.383Z,51.212105
2024-03-15T01:19:47.301Z,51.212082
2024-03-15T01:20:47.295Z,51.211983
2024-03-15T01:21:47.287Z,51.212059
2024-03-15T01:22:47.205Z,51.211971
2024-03-15T01:23:47.219Z,51.211929
2024-03-15T01:24:47.296Z,51.212017
2024-03-15T01:25:47.252Z,51.212242
2024-03-15T01:26:47.189Z,51.212078
2024-03-15T01:27:47.300Z,51.212055
2024-03-15T01:28:47.193Z,51.212006
2024-03-15T01:29:47.189Z,51.211964
2024-03-15T01:30:47.352Z,51.211990
2024-03-15T01:31:47.421Z,51.212032
2024-03-15T01:32:47.210Z,51.212162
2024-03-15T01:33:47.210Z,51.212166
2024-03-15T01:34:47.130Z,51.212006
2024-03-15T01:35:47.138Z,51.212002
2024-03-15T01:36:47.242Z,51.212051
2024-03-15T01:37:47.380Z,51.212170
2024-03-15T01:38:47.164Z,51.212158
2024-03-15T01:39:47.187Z,51.212090
2024-03-15T01:40:47.244Z,51.212002
2024-03-15T01:41:47.116Z,51.212017
2024-03-15T01:42:47.213Z,51.212276
2024-03-15T01:43:47.113Z,51.212090
2024-03-15T01:44:47.076Z,51.211948
2024-03-15T01:45:47.159Z,51.211983
2024-03-15T01:46:47.093Z,51.211849
2024-03-15T01:47:47.135Z,51.212044
2024-03-15T01:48:47.124Z,51.212055
2024-03-15T01:49:47.079Z,51.212017
2024-03-15T01:50:47.044Z,51.212006
2024-03-15T01:51:47.120Z,51.211987
2024-03-15T01:52:47.063Z,51.212086
2024-03-15T01:53:47.081Z,51.212009
2024-03-15T01:54:47.095Z,51.212059
2024-03-15T01:55:47.033Z,51.212048
2024-03-15T01:56:47.053Z,51.212082
2024-03-15T01:57:47.130Z,51.212029
2024-03-15T01:58:48.008Z,51.211990
2024-03-15T01:59:47.963Z,51.211903
2024-03-15T02:00:47.072Z,51.211815
2024-03-15T02:01:47.017Z,51.211857
2024-03-15T02:02:47.024Z,51.211849
2024-03-15T02:03:47.049Z,51.211876
2024-03-15T02:04:46.989Z,51.211956
2024-03-15T02:05:46.945Z,51.212006
2024-03-15T02:06:47.008Z,51.212044
2024-03-15T02:07:46.968Z,51.212101
2024-03-15T02:08:46.952Z,51.212208
2024-03-15T02:09:47.028Z,51.212215
2024-03-15T02:10:47.047Z,51.212196
2024-03-15T02:11:46.959Z,51.212090
2024-03-15T02:12:47.064Z,51.212006
2024-03-15T02:13:46.924Z,51.212139
2024-03-15T02:14:46.901Z,51.212219
2024-03-15T02:15:47.097Z,51.212082
2024-03-15T02:16:46.924Z,51.212078
2024-03-15T02:17:46.910Z,51.212082
2024-03-15T02:18:46.936Z,51.212143
2024-03-15T02:19:46.921Z,51.212116
2024-03-15T02:20:46.875Z,51.212109
2024-03-15T02:21:46.941Z,51.212086
2024-03-15T02:22:46.865Z,51.212082
2024-03-15T02:23:46.867Z,51.212128
2024-03-15T02:24:46.968Z,51.212070
2024-03-15T02:25:46.838Z,51.212093
2024-03-15T02:26:46.886Z,51.212040
2024-03-15T02:27:46.866Z,51.212112
2024-03-15T02:28:46.820Z,51.212086
2024-03-15T02:29:46.809Z,51.211964
2024-03-15T02:30:47.482Z,51.212017
2024-03-15T02:31:46.838Z,51.212116
2024-03-15T02:32:46.978Z,51.211967
2024-03-15T02:33:46.863Z,51.212063
2024-03-15T02:34:46.776Z,51.212193
2024-03-15T02:35:46.792Z,51.212208
2024-03-15T02:36:46.806Z,51.211983
2024-03-15T02:37:46.792Z,51.212021
2024-03-15T02:38:46.774Z,51.211868
2024-03-15T02:39:46.867Z,51.212082
2024-03-15T02:40:46.753Z,51.212185
2024-03-15T02:41:46.756Z,51.212238
2024-03-15T02:42:46.763Z,51.212120
2024-03-15T02:43:46.715Z,51.211990
2024-03-15T02:44:46.713Z,51.212143
2024-03-15T02:45:46.741Z,51.212105
2024-03-15T02:46:46.748Z,51.212238
2024-03-15T02:47:46.728Z,51.212212
2024-03-15T02:48:46.725Z,51.212112
2024-03-15T02:49:46.694Z,51.212063
2024-03-15T02:50:46.697Z,51.212097
2024-03-15T02:51:46.739Z,51.212242
2024-03-15T02:52:46.695Z,51.212227
2024-03-15T02:53:46.661Z,51.212246
2024-03-15T02:54:46.656Z,51.212177
2024-03-15T02:55:46.642Z,51.212189
2024-03-15T02:56:46.685Z,51.212101
2024-03-15T02:57:46.764Z,51.212044
2024-03-15T02:58:46.643Z,51.212063
2024-03-15T02:59:46.644Z,51.212078
2024-03-15T03:00:46.657Z,51.212112
2024-03-15T03:01:46.717Z,51.212254
2024-03-15T03:02:46.616Z,51.212105
2024-03-15T03:03:46.671Z,51.212143
2024-03-15T03:04:46.594Z,51.212143
2024-03-15T03:05:46.592Z,51.212120
2024-03-15T03:06:46.884Z,51.212120
2024-03-15T03:07:46.603Z,51.212067
2024-03-15T03:08:46.578Z,51.212032
2024-03-15T03:09:46.684Z,51.212055
2024-03-15T03:10:46.551Z,51.212135
2024-03-15T03:11:46.550Z,51.212112
2024-03-15T03:12:46.796Z,51.212070
2024-03-15T03:13:46.605Z,51.212109
2024-03-15T03:14:46.541Z,51.212173
2024-03-15T03:15:46.574Z,51.212177
2024-03-15T03:16:46.568Z,51.212173
2024-03-15T03:17:46.943Z,51.212044
2024-03-15T03:18:46.555Z,51.212051
2024-03-15T03:19:46.495Z,51.211975
2024-03-15T03:20:46.487Z,51.212017
2024-03-15T03:21:46.569Z,51.212067
2024-03-15T03:22:46.560Z,51.212048
2024-03-15T03:23:46.489Z,51.212147
2024-03-15T03:24:46.576Z,51.212021
2024-03-15T03:25:46.477Z,51.211948
2024-03-15T03:26:46.481Z,51.212021
2024-03-15T03:27:46.618Z,51.211937
2024-03-15T03:28:46.450Z,51.212013
2024-03-15T03:29:46.446Z,51.212009
2024-03-15T03:30:46.562Z,51.211960
2024-03-15T03:31:46.450Z,51.211803
2024-03-15T03:32:46.474Z,51.211979
2024-03-15T03:33:46.438Z,51.211937
2024-03-15T03:34:46.429Z,51.211937
2024-03-15T03:35:46.429Z,51.211994
2024-03-15T03:36:46.674Z,51.212017
2024-03-15T03:37:46.409Z,51.211906
2024-03-15T03:38:46.389Z,51.212040
2024-03-15T03:39:46.448Z,51.212017
2024-03-15T03:40:47.384Z,51.211956
2024-03-15T03:41:46.372Z,51.211971
2024-03-15T03:42:46.576Z,51.211910
2024-03-15T03:43:46.418Z,51.211971
2024-03-15T03:44:46.361Z,51.211918
2024-03-15T03:45:46.381Z,51.211960
2024-03-15T03:46:46.349Z,51.211975
2024-03-15T03:47:46.397Z,51.211994
2024-03-15T03:48:46.348Z,51.212048
2024-03-15T03:49:46.328Z,51.211887
2024-03-15T03:50:46.343Z,51.211746
2024-03-15T03:51:46.505Z,51.211723
2024-03-15T03:52:46.415Z,51.211807
2024-03-15T03:53:46.298Z,51.211906
2024-03-15T03:54:46.392Z,51.211872
2024-03-15T03:55:46.295Z,51.211880
2024-03-15T03:56:46.290Z,51.211979
2024-03-15T03:57:46.544Z,51.211994
2024-03-15T03:58:46.284Z,51.212048
2024-03-15T03:59:46.288Z,51.212032
2024-03-15T04:00:46.325Z,51.211926
2024-03-15T04:01:46.303Z,51.211941
2024-03-15T04:02:46.773Z,51.211998
2024-03-15T04:03:46.387Z,51.211746
2024-03-15T04:04:46.254Z,51.211700
2024-03-15T04:05:46.240Z,51.211750
2024-03-15T04:06:46.233Z,51.211906
2024-03-15T04:07:46.444Z,51.212021
2024-03-15T04:08:46.251Z,51.211826
2024-03-15T04:09:46.322Z,51.212105
2024-03-15T04:10:46.232Z,51.212242
2024-03-15T04:11:46.236Z,51.212307
2024-03-15T04:12:46.309Z,51.212234
2024-03-15T04:13:46.206Z,51.212234
2024-03-15T04:14:51.171Z,51.212231
2024-03-15T04:15:48.204Z,51.212246
2024-03-15T04:16:46.273Z,51.212261
2024-03-15T04:17:46.238Z,51.212227
2024-03-15T04:18:46.180Z,51.212208
2024-03-15T04:19:47.009Z,51.212254
2024-03-15T04:20:46.128Z,51.212238
2024-03-15T04:21:46.231Z,51.212269
2024-03-15T04:22:46.151Z,51.212231
2024-03-15T04:23:46.094Z,51.212212
2024-03-15T04:24:46.165Z,51.212231
2024-03-15T04:25:46.108Z,51.212196
2024-03-15T04:26:46.087Z,51.212170
2024-03-15T04:27:46.107Z,51.212147
2024-03-15T04:28:46.093Z,51.212124
2024-03-15T04:29:46.098Z,51.212090
2024-03-15T04:30:46.158Z,51.212124
2024-03-15T04:31:46.085Z,51.212212
2024-03-15T04:32:46.092Z,51.212173
2024-03-15T04:33:46.080Z,51.212162
2024-03-15T04:34:46.057Z,51.212124
2024-03-15T04:35:46.057Z,51.212128
2024-03-15T04:36:46.216Z,51.212170
2024-03-15T04:37:46.053Z,51.212032
2024-03-15T04:38:46.048Z,51.212154
2024-03-15T04:39:46.064Z,51.212322
2024-03-15T04:40:46.044Z,51.212265
2024-03-15T04:41:46.958Z,51.212212
2024-03-15T04:42:46.308Z,51.212128
2024-03-15T04:43:45.982Z,51.212074
2024-03-15T04:44:45.978Z,51.212090
2024-03-15T04:45:46.020Z,51.212025
2024-03-15T04:46:46.001Z,51.212017
2024-03-15T04:47:46.115Z,51.211838
2024-03-15T04:48:46.008Z,51.212017
2024-03-15T04:49:45.933Z,51.212067
2024-03-15T04:50:45.949Z,51.212086
2024-03-15T04:51:45.976Z,51.212143
2024-03-15T04:52:45.926Z,51.212177
2024-03-15T04:53:45.937Z,51.212360
2024-03-15T04:54:45.954Z,51.212128
2024-03-15T04:55:45.897Z,51.212135
2024-03-15T04:56:45.916Z,51.212196
2024-03-15T04:57:46.007Z,51.212280
2024-03-15T04:58:45.925Z,51.212250
2024-03-15T04:59:45.870Z,51.212112
2024-03-15T05:00:45.898Z,51.212059
2024-03-15T05:01:45.928Z,51.212132
2024-03-15T05:02:45.912Z,51.212212
2024-03-15T05:03:45.924Z,51.212234
2024-03-15T05:04:45.850Z,51.212162
2024-03-15T05:05:45.853Z,51.211975
2024-03-15T05:06:45.859Z,51.212048
2024-03-15T05:07:45.889Z,51.212109
2024-03-15T05:08:51.395Z,51.212120
2024-03-15T05:09:47.896Z,51.212132
2024-03-15T05:10:45.857Z,51.212234
2024-03-15T05:11:45.787Z,51.212189
2024-03-15T05:12:46.226Z,51.212101
2024-03-15T05:13:45.790Z,51.212208
2024-03-15T05:14:45.830Z,51.212051
2024-03-15T05:15:45.876Z,51.212151
2024-03-15T05:16:45.849Z,51.212132
2024-03-15T05:17:45.845Z,51.212185
2024-03-15T05:18:45.791Z,51.212067
2024-03-15T05:19:45.761Z,51.211987
2024-03-15T05:20:45.776Z,51.212219
2024-03-15T05:21:45.911Z,51.212128
2024-03-15T05:22:46.461Z,51.212044
2024-03-15T05:23:45.768Z,51.212070
2024-03-15T05:24:45.778Z,51.212124
2024-03-15T05:25:47.374Z,51.212288
2024-03-15T05:26:45.712Z,51.212345
2024-03-15T05:27:45.791Z,51.212173
2024-03-15T05:28:45.718Z,51.212173
2024-03-15T05:29:45.726Z,51.212261
2024-03-15T05:30:45.779Z,51.212330
2024-03-15T05:31:45.691Z,51.212242
2024-03-15T05:32:45.736Z,51.212112
2024-03-15T05:33:45.756Z,51.211964
2024-03-15T05:34:45.695Z,51.212208
2024-03-15T05:35:45.739Z,51.212200
2024-03-15T05:36:45.920Z,51.212143
2024-03-15T05:37:45.639Z,51.212090
2024-03-15T05:38:45.652Z,51.211933
2024-03-15T05:39:45.785Z,51.212025
2024-03-15T05:40:45.639Z,51.212040
2024-03-15T05:41:45.660Z,51.212112
2024-03-15T05:42:45.780Z,51.212208
2024-03-15T05:43:45.672Z,51.212173
2024-03-15T05:44:45.610Z,51.212063
2024-03-15T05:45:45.724Z,51.212257
2024-03-15T05:46:45.605Z,51.212284
2024-03-15T05:47:45.790Z,51.212250
2024-03-15T05:48:45.629Z,51.212090
2024-03-15T05:49:45.583Z,51.212086
2024-03-15T05:50:45.643Z,51.212250
2024-03-15T05:51:45.775Z,51.212223
2024-03-15T05:52:46.478Z,51.212219
2024-03-15T05:53:48.545Z,51.212227
2024-03-15T05:54:46.854Z,51.212181
2024-03-15T05:55:45.566Z,51.212257
2024-03-15T05:56:45.842Z,51.212166
2024-03-15T05:57:45.556Z,51.212166
2024-03-15T05:58:47.403Z,51.212109
2024-03-15T05:59:46.617Z,51.212090
2024-03-15T06:00:45.603Z,51.212002
2024-03-15T06:01:45.567Z,51.211998
2024-03-15T06:02:45.873Z,51.212055
2024-03-15T06:03:45.607Z,51.212124
2024-03-15T06:04:45.470Z,51.212070
2024-03-15T06:05:45.476Z,51.212017
2024-03-15T06:06:45.582Z,51.212036
2024-03-15T06:07:45.499Z,51.211899
2024-03-15T06:08:45.473Z,51.211967
2024-03-15T06:09:46.524Z,51.211781
2024-03-15T06:10:45.429Z,51.211830
2024-03-15T06:11:45.479Z,51.211987
2024-03-15T06:12:45.494Z,51.211853
2024-03-15T06:13:45.417Z,51.211910
2024-03-15T06:14:45.456Z,51.211884
2024-03-15T06:15:45.468Z,51.212013
2024-03-15T06:16:45.385Z,51.212036
2024-03-15T06:17:45.452Z,51.212051
2024-03-15T06:18:45.437Z,51.211945
2024-03-15T06:19:45.381Z,51.212078
2024-03-15T06:20:45.407Z,51.212109
2024-03-15T06:21:45.416Z,51.212151
2024-03-15T06:22:45.381Z,51.212105
2024-03-15T06:23:45.405Z,51.212105
2024-03-15T06:24:45.411Z,51.212132
2024-03-15T06:25:45.408Z,51.212185
2024-03-15T06:26:45.341Z,51.212322
2024-03-15T06:27:45.394Z,51.212135
2024-03-15T06:28:45.325Z,51.212128
2024-03-15T06:29:45.331Z,51.212189
2024-03-15T06:30:45.377Z,51.212101
2024-03-15T06:31:45.302Z,51.212204
2024-03-15T06:32:45.368Z,51.212135
2024-03-15T06:33:45.328Z,51.212059
2024-03-15T06:34:45.295Z,51.211926
2024-03-15T06:35:45.305Z,51.212055
2024-03-15T06:36:45.339Z,51.212116
2024-03-15T06:37:45.320Z,51.212143
2024-03-15T06:38:45.256Z,51.212093
2024-03-15T06:39:45.283Z,51.212044
2024-03-15T06:40:45.326Z,51.211998
2024-03-15T06:41:45.249Z,51.212059
2024-03-15T06:42:45.316Z,51.212147
2024-03-15T06:43:45.273Z,51.212173
2024-03-15T06:44:45.250Z,51.212036
2024-03-15T06:45:45.315Z,51.212086
2024-03-15T06:46:45.205Z,51.212086
2024-03-15T06:47:45.297Z,51.212090
2024-03-15T06:48:45.328Z,51.212090
2024-03-15T06:49:45.608Z,51.212151
2024-03-15T06:50:45.227Z,51.212082
2024-03-15T06:51:45.228Z,51.212059
2024-03-15T06:52:45.204Z,51.212093
2024-03-15T06:53:45.237Z,51.212105
2024-03-15T06:54:45.232Z,51.212063
2024-03-15T06:55:45.154Z,51.211990
2024-03-15T06:56:45.178Z,51.212082
2024-03-15T06:57:45.229Z,51.212132
2024-03-15T06:58:45.145Z,51.212112
2024-03-15T06:59:45.325Z,51.212128
2024-03-15T07:00:45.214Z,51.212120
2024-03-15T07:01:45.159Z,51.212177
2024-03-15T07:02:45.605Z,51.212196
2024-03-15T07:03:45.184Z,51.212173
2024-03-15T07:04:45.139Z,51.212173
2024-03-15T07:05:45.109Z,51.212109
2024-03-15T07:06:45.157Z,51.212021
2024-03-15T07:07:45.127Z,51.212036
2024-03-15T07:08:47.265Z,51.212036
2024-03-15T07:09:45.180Z,51.212017
2024-03-15T07:10:45.205Z,51.212017
2024-03-15T07:11:45.155Z,51.212021
2024-03-15T07:12:45.154Z,51.212082
2024-03-15T07:13:45.070Z,51.212090
2024-03-15T07:14:48.588Z,51.212112
2024-03-15T07:15:47.119Z,51.212025
2024-03-15T07:16:45.084Z,51.211987
2024-03-15T07:17:45.102Z,51.211967
2024-03-15T07:18:45.228Z,51.212029
2024-03-15T07:19:45.190Z,51.212025
2024-03-15T07:20:45.038Z,51.212017
2024-03-15T07:21:45.068Z,51.211971
2024-03-15T07:22:45.096Z,51.211952
2024-03-15T07:23:45.036Z,51.211994
2024-03-15T07:24:45.030Z,51.211979
2024-03-15T07:25:45.008Z,51.212017
2024-03-15T07:26:45.033Z,51.211990
2024-03-15T07:27:45.086Z,51.212044
2024-03-15T07:28:44.964Z,51.212055
2024-03-15T07:29:44.988Z,51.212120
2024-03-15T07:30:44.979Z,51.212029
2024-03-15T07:31:44.963Z,51.212017
2024-03-15T07:32:45.983Z,51.212002
2024-03-15T07:33:45.029Z,51.211960
2024-03-15T07:34:45.035Z,51.212029
2024-03-15T07:35:44.966Z,51.212055
2024-03-15T07:36:44.944Z,51.212135
2024-03-15T07:37:44.951Z,51.212112
2024-03-15T07:38:44.970Z,51.212143
2024-03-15T07:39:46.005Z,51.212212
2024-03-15T07:40:44.936Z,51.212284
2024-03-15T07:41:44.908Z,51.212273
2024-03-15T07:42:44.954Z,51.212242
2024-03-15T07:43:44.854Z,51.212254
2024-03-15T07:44:44.890Z,51.212265
2024-03-15T07:45:44.981Z,51.212261
2024-03-15T07:46:44.860Z,51.212250
2024-03-15T07:47:44.949Z,51.212242
2024-03-15T07:48:44.880Z,51.212097
2024-03-15T07:49:44.878Z,51.212032
2024-03-15T07:50:44.837Z,51.211895
2024-03-15T07:51:44.862Z,51.212067
2024-03-15T07:52:44.808Z,51.212097
2024-03-15T07:53:44.831Z,51.212120
2024-03-15T07:54:45.414Z,51.212147
2024-03-15T07:55:44.823Z,51.212116
2024-03-15T07:56:44.882Z,51.212120
2024-03-15T07:57:46.779Z,51.212025
2024-03-15T07:58:44.839Z,51.212048
2024-03-15T07:59:44.762Z,51.212078
2024-03-15T08:00:44.799Z,51.212055
2024-03-15T08:01:44.794Z,51.212006
2024-03-15T08:02:44.742Z,51.212105
2024-03-15T08:03:44.829Z,51.211994
2024-03-15T08:04:44.769Z,51.211964
2024-03-15T08:05:44.770Z,51.212074
2024-03-15T08:06:44.849Z,51.212040
2024-03-15T08:07:44.787Z,51.211903
2024-03-15T08:08:44.723Z,51.211903
2024-03-15T08:09:44.772Z,51.211960
2024-03-15T08:10:44.844Z,51.212063
2024-03-15T08:11:44.915Z,51.211910
2024-03-15T08:12:44.738Z,51.211838
2024-03-15T08:13:44.731Z,51.211693
2024-03-15T08:14:44.753Z,51.211754
2024-03-15T08:15:44.768Z,51.211647
2024-03-15T08:16:44.867Z,51.211937
2024-03-15T08:17:44.884Z,51.212059
2024-03-15T08:18:44.833Z,51.212090
2024-03-15T08:19:44.695Z,51.212116
2024-03-15T08:20:44.654Z,51.212017
2024-03-15T08:21:44.678Z,51.211994
2024-03-15T08:22:44.637Z,51.211998
2024-03-15T08:23:44.629Z,51.211952
2024-03-15T08:24:44.665Z,51.211872
2024-03-15T08:25:44.628Z,51.211945
2024-03-15T08:26:44.611Z,51.212154
2024-03-15T08:27:45.859Z,51.212063
2024-03-15T08:28:44.590Z,51.211987
2024-03-15T08:29:44.758Z,51.212021
2024-03-15T08:30:44.665Z,51.212021
2024-03-15T08:31:44.598Z,51.211971
2024-03-15T08:32:44.596Z,51.212067
2024-03-15T08:33:45.636Z,51.212082
2024-03-15T08:34:44.604Z,51.211906
2024-03-15T08:35:44.581Z,51.212051
2024-03-15T08:36:44.594Z,51.212025
2024-03-15T08:37:44.543Z,51.212116
2024-03-15T08:38:44.519Z,51.211918
2024-03-15T08:39:44.639Z,51.212051
2024-03-15T08:40:44.516Z,51.212162
2024-03-15T08:41:44.929Z,51.212219
2024-03-15T08:42:44.598Z,51.212135
2024-03-15T08:43:44.508Z,51.212120
2024-03-15T08:44:44.537Z,51.211876
2024-03-15T08:45:44.552Z,51.212006
2024-03-15T08:46:44.454Z,51.212139
2024-03-15T08:47:54.723Z,51.212177
2024-03-15T08:48:46.549Z,51.212048
2024-03-15T08:49:44.501Z,51.212025
2024-03-15T08:50:45.332Z,51.211990
2024-03-15T08:51:44.492Z,51.211983
2024-03-15T08:52:44.444Z,51.211971
2024-03-15T08:53:44.428Z,51.212009
2024-03-15T08:54:44.468Z,51.212063
2024-03-15T08:55:44.416Z,51.211903
2024-03-15T08:56:44.416Z,51.211922
2024-03-15T08:57:44.529Z,51.212040
2024-03-15T08:58:44.402Z,51.212162
2024-03-15T08:59:44.403Z,51.212147
2024-03-15T09:00:44.486Z,51.212112
2024-03-15T09:01:44.393Z,51.212109
2024-03-15T09:02:44.473Z,51.212013
2024-03-15T09:03:47.862Z,51.212093
2024-03-15T09:04:44.367Z,51.212029
2024-03-15T09:05:44.434Z,51.211998
2024-03-15T09:06:44.363Z,51.211773
2024-03-15T09:07:44.349Z,51.211803
2024-03-15T09:08:44.442Z,51.211956
2024-03-15T09:09:44.478Z,51.212097
2024-03-15T09:10:44.365Z,51.211945
2024-03-15T09:11:44.487Z,51.211838
2024-03-15T09:12:44.489Z,51.211952
2024-03-15T09:13:48.921Z,51.212158
2024-03-15T09:14:46.332Z,51.211956
2024-03-15T09:15:44.395Z,51.212078
2024-03-15T09:16:44.290Z,51.211838
2024-03-15T09:17:44.374Z,51.212135
2024-03-15T09:18:44.295Z,51.212139
2024-03-15T09:19:44.281Z,51.212185
2024-03-15T09:20:44.472Z,51.212193
2024-03-15T09:21:44.271Z,51.212154
2024-03-15T09:22:44.301Z,51.212139
2024-03-15T09:23:44.278Z,51.212181
2024-03-15T09:24:44.247Z,51.212139
2024-03-15T09:25:44.392Z,51.212139
2024-03-15T09:26:44.223Z,51.212204
2024-03-15T09:27:44.383Z,51.212387
2024-03-15T09:28:44.208Z,51.212345
2024-03-15T09:29:44.250Z,51.212254
2024-03-15T09:30:51.302Z,51.212215
2024-03-15T09:32:00.454Z,51.212215
2024-03-15T09:32:45.339Z,51.212128
2024-03-15T09:33:44.311Z,51.212101
2024-03-15T09:34:44.225Z,51.212158
2024-03-15T09:35:44.170Z,51.212189
2024-03-15T09:36:44.195Z,51.212093
2024-03-15T09:37:44.914Z,51.212143
2024-03-15T09:38:44.219Z,51.212120
2024-03-15T09:39:44.260Z,51.212166
2024-03-15T09:40:44.180Z,51.212101
2024-03-15T09:41:44.189Z,51.212147
2024-03-15T09:42:44.251Z,51.212250
2024-03-15T09:43:44.126Z,51.212173
2024-03-15T09:44:44.144Z,51.212116
2024-03-15T09:45:44.171Z,51.212109
2024-03-15T09:46:44.097Z,51.212200
2024-03-15T09:47:44.149Z,51.212143
2024-03-15T09:48:44.134Z,51.211929
2024-03-15T09:49:44.163Z,51.212025
2024-03-15T09:50:44.103Z,51.212082
2024-03-15T09:51:44.105Z,51.212063
2024-03-15T09:52:44.054Z,51.212185
2024-03-15T09:53:44.054Z,51.212170
2024-03-15T09:54:44.224Z,51.212093
2024-03-15T09:55:44.113Z,51.212109
2024-03-15T09:56:44.140Z,51.212025
2024-03-15T09:57:44.184Z,51.212009
2024-03-15T09:58:44.045Z,51.212040
2024-03-15T09:59:44.015Z,51.211945
2024-03-15T10:00:44.091Z,51.212017
2024-03-15T10:01:44.156Z,51.212032
2024-03-15T10:02:44.024Z,51.211983
2024-03-15T10:03:44.075Z,51.212101
2024-03-15T10:04:43.996Z,51.212196
2024-03-15T10:05:43.980Z,51.212158
2024-03-15T10:06:43.980Z,51.212170
2024-03-15T10:07:44.048Z,51.212105
2024-03-15T10:08:43.983Z,51.212158
2024-03-15T10:09:44.004Z,51.212173
2024-03-15T10:10:43.963Z,51.212185
2024-03-15T10:11:43.979Z,51.212177
2024-03-15T10:12:43.986Z,51.212181
2024-03-15T10:13:44.210Z,51.212082
2024-03-15T10:14:44.017Z,51.212101
2024-03-15T10:15:44.019Z,51.212029
2024-03-15T10:16:43.925Z,51.212151
2024-03-15T10:17:44.050Z,51.212219
2024-03-15T10:18:43.998Z,51.212254
2024-03-15T10:19:43.987Z,51.212234
2024-03-15T10:20:43.966Z,51.212292
2024-03-15T10:21:43.967Z,51.212219
2024-03-15T10:22:43.897Z,51.212143
2024-03-15T10:23:43.861Z,51.212009
2024-03-15T10:24:43.916Z,51.212311
2024-03-15T10:25:43.914Z,51.212246
2024-03-15T10:26:43.885Z,51.211990
2024-03-15T10:27:43.950Z,51.211803
2024-03-15T10:28:43.857Z,51.211994
2024-03-15T10:29:43.858Z,51.212112
2024-03-15T10:30:43.920Z,51.212055
2024-03-15T10:31:43.813Z,51.212128
2024-03-15T10:32:43.858Z,51.212177
2024-03-15T10:33:43.971Z,51.212292
2024-03-15T10:34:43.836Z,51.212242
2024-03-15T10:35:43.817Z,51.212124
2024-03-15T10:36:43.842Z,51.212151
2024-03-15T10:37:43.792Z,51.212109
2024-03-15T10:38:43.798Z,51.212193
2024-03-15T10:39:43.862Z,51.212322
2024-03-15T10:40:43.758Z,51.211834
2024-03-15T10:41:43.954Z,51.212147
2024-03-15T10:42:43.819Z,51.212166
2024-03-15T10:43:43.804Z,51.211613
2024-03-15T10:44:43.737Z,51.211838
2024-03-15T10:45:43.741Z,51.211937
2024-03-15T10:46:44.048Z,51.211971
2024-03-15T10:47:43.883Z,51.211983
2024-03-15T10:48:43.869Z,51.211842
2024-03-15T10:49:43.791Z,51.211788
2024-03-15T10:50:43.717Z,51.212025
2024-03-15T10:51:43.765Z,51.211994
2024-03-15T10:52:43.705Z,51.212090
2024-03-15T10:53:43.738Z,51.212204
2024-03-15T10:54:43.732Z,51.212032
2024-03-15T10:55:43.696Z,51.211979
2024-03-15T10:56:43.700Z,51.211983
2024-03-15T10:57:43.770Z,51.211945
2024-03-15T10:58:43.670Z,51.211941
2024-03-15T10:59:43.658Z,51.211868
2024-03-15T11:00:43.785Z,51.211895
2024-03-15T11:01:43.830Z,51.211906
2024-03-15T11:02:43.643Z,51.212006
2024-03-15T11:03:43.711Z,51.211956
2024-03-15T11:04:43.635Z,51.212151
2024-03-15T11:05:43.622Z,51.212288
2024-03-15T11:06:43.698Z,51.212154
2024-03-15T11:07:43.601Z,51.211964
2024-03-15T11:08:43.653Z,51.212101
2024-03-15T11:09:43.622Z,51.212254
2024-03-15T11:10:43.646Z,51.212132
2024-03-15T11:11:43.648Z,51.212463
2024-03-15T11:12:43.599Z,51.212345
2024-03-15T11:13:43.562Z,51.212421
2024-03-15T11:14:43.574Z,51.212257
2024-03-15T11:15:43.757Z,51.212078
2024-03-15T11:16:43.573Z,51.211884
2024-03-15T11:17:43.572Z,51.212219
2024-03-15T11:18:43.603Z,51.212070
2024-03-15T11:19:43.636Z,51.211758
2024-03-15T11:20:43.589Z,51.211987
2024-03-15T11:21:43.600Z,51.212093
2024-03-15T11:22:43.536Z,51.212383
2024-03-15T11:23:43.549Z,51.212368
2024-03-15T11:24:43.555Z,51.212250